createdAt,value
2022-09-23T00:07:31.978Z,9.54
2022-09-23T00:29:15.743Z,9.36
2022-09-23T00:50:59.308Z,9.24
2022-09-23T01:13:03.959Z,8.99
2022-09-23T01:34:55.231Z,8.82
2022-09-23T01:56:43.785Z,8.55
2022-09-23T02:18:30.190Z,8.50
2022-09-23T02:40:23.090Z,8.19
2022-09-23T03:02:21.064Z,8.07
2022-09-23T03:24:07.752Z,7.91
2022-09-23T03:45:56.428Z,7.96
2022-09-23T04:07:40.494Z,7.70
2022-09-23T04:29:24.869Z,7.75
2022-09-23T04:51:10.361Z,7.66
2022-09-23T05:12:56.905Z,7.54
2022-09-23T05:34:41.040Z,7.46
2022-09-23T05:56:25.782Z,7.63
2022-09-23T06:18:08.971Z,8.20
2022-09-23T06:39:54.293Z,8.55
2022-09-23T07:01:40.240Z,8.89
2022-09-23T07:23:23.413Z,9.56
2022-09-23T07:45:09.219Z,10.50
2022-09-23T08:06:54.147Z,13.42
2022-09-23T08:28:37.240Z,35.39
2022-09-23T08:50:22.754Z,46.23
2022-09-23T09:12:15.599Z,49.25
2022-09-23T09:34:05.711Z,50.96
2022-09-23T09:56:04.562Z,51.37
2022-09-23T10:17:51.203Z,49.87
2022-09-23T10:39:52.876Z,50.63
2022-09-23T11:01:42.886Z,45.74
2022-09-23T11:23:46.316Z,35.87
2022-09-23T11:45:34.196Z,26.32
2022-09-23T12:07:22.481Z,23.66
2022-09-23T12:29:07.388Z,21.79
2022-09-23T12:50:53.941Z,21.19
2022-09-23T13:12:41.981Z,21.24
2022-09-23T13:34:30.454Z,20.55
2022-09-23T13:56:15.220Z,19.59
2022-09-23T14:18:04.018Z,18.85
2022-09-23T14:39:54.486Z,18.43
2022-09-23T15:01:40.444Z,18.14
2022-09-23T15:23:44.293Z,17.77
2022-09-23T15:45:31.438Z,17.29
2022-09-23T16:07:16.669Z,16.76
2022-09-23T16:29:00.675Z,16.14
2022-09-23T16:50:44.293Z,15.56
2022-09-23T17:12:33.024Z,15.01
2022-09-23T17:34:18.138Z,14.55
2022-09-23T17:56:04.147Z,13.96
2022-09-23T18:17:47.326Z,13.38
2022-09-23T18:39:30.471Z,13.01
2022-09-23T19:01:14.401Z,12.95
2022-09-23T19:22:57.240Z,12.66
2022-09-23T19:44:40.549Z,12.37
2022-09-23T20:06:24.610Z,12.15
2022-09-23T20:28:07.641Z,11.91
2022-09-23T20:49:50.878Z,11.86
2022-09-23T21:11:34.077Z,11.55
2022-09-23T21:33:17.681Z,11.20
2022-09-23T21:55:00.622Z,11.22
2022-09-23T22:16:43.928Z,11.05
2022-09-23T22:38:27.082Z,10.96
2022-09-23T23:00:12.779Z,10.96
2022-09-23T23:21:55.867Z,10.40
2022-09-23T23:43:39.633Z,9.88
